createdAt,value
2019-03-28T00:01:09.590Z,23.47
2019-03-28T00:04:20.193Z,22.00
2019-03-28T00:07:28.098Z,23.45
2019-03-28T00:10:36.088Z,24.95
2019-03-28T00:13:43.976Z,23.60
2019-03-28T00:16:51.886Z,20.10
2019-03-28T00:20:01.050Z,20.10
2019-03-28T00:23:30.690Z,22.45
2019-03-28T00:26:38.815Z,26.17
2019-03-28T00:29:47.846Z,23.62
2019-03-28T00:32:55.662Z,25.43
2019-03-28T00:36:04.744Z,23.55
2019-03-28T00:39:12.702Z,24.43
2019-03-28T00:42:20.516Z,29.87
2019-03-28T00:45:28.416Z,24.30
2019-03-28T00:48:36.224Z,22.67
2019-03-28T00:51:44.591Z,21.70
2019-03-28T00:54:55.276Z,21.15
2019-03-28T00:58:03.381Z,21.65
2019-03-28T01:01:11.310Z,23.05
2019-03-28T01:04:19.327Z,20.55
2019-03-28T01:07:27.279Z,22.65
2019-03-28T01:10:35.144Z,22.55
2019-03-28T01:13:43.307Z,20.27
2019-03-28T01:16:51.142Z,25.52
2019-03-28T01:20:02.736Z,26.15
2019-03-28T01:23:10.672Z,24.30
2019-03-28T01:26:18.516Z,21.68
2019-03-28T01:29:26.557Z,21.10
2019-03-28T01:32:34.390Z,24.75
2019-03-28T01:35:42.342Z,26.50
2019-03-28T01:38:50.022Z,22.73
2019-03-28T01:42:00.680Z,24.45
2019-03-28T01:45:08.773Z,25.00
2019-03-28T01:48:16.647Z,22.05
2019-03-28T01:51:24.563Z,25.75
2019-03-28T01:54:32.672Z,22.27
2019-03-28T01:57:40.887Z,23.85
2019-03-28T02:00:48.955Z,33.95
2019-03-28T02:03:56.870Z,22.32
2019-03-28T02:07:04.826Z,21.15
2019-03-28T02:10:13.353Z,23.95
2019-03-28T02:13:22.203Z,25.23
2019-03-28T02:16:30.683Z,24.72
2019-03-28T02:19:38.715Z,22.90
2019-03-28T02:22:46.531Z,25.70
2019-03-28T02:25:56.884Z,36.45
2019-03-28T02:29:04.731Z,33.02
2019-03-28T02:32:12.601Z,31.52
2019-03-28T02:35:20.579Z,23.40
2019-03-28T02:38:30.240Z,33.78
2019-03-28T02:41:38.054Z,25.68
2019-03-28T02:44:48.745Z,24.00
2019-03-28T02:47:56.750Z,29.65
2019-03-28T02:51:04.588Z,24.45
2019-03-28T02:54:12.552Z,28.17
2019-03-28T02:57:21.603Z,21.90
2019-03-28T03:00:29.398Z,31.05
2019-03-28T03:03:37.205Z,23.10
2019-03-28T03:06:44.961Z,26.05
2019-03-28T03:09:52.924Z,29.20
2019-03-28T03:13:00.797Z,27.52
2019-03-28T03:16:10.447Z,26.10
2019-03-28T03:19:18.081Z,22.60
2019-03-28T03:22:25.989Z,25.92
2019-03-28T03:25:33.851Z,28.40
2019-03-28T03:28:42.007Z,40.40
2019-03-28T03:31:49.877Z,27.02
2019-03-28T03:34:57.677Z,27.95
2019-03-28T03:38:05.728Z,25.05
2019-03-28T03:41:13.610Z,26.77
2019-03-28T03:44:21.384Z,27.00
2019-03-28T03:47:29.229Z,30.00
2019-03-28T03:50:37.001Z,31.68
2019-03-28T03:53:45.122Z,29.70
2019-03-28T03:56:52.797Z,25.40
2019-03-28T04:00:00.959Z,28.67
2019-03-28T04:03:08.857Z,25.12
2019-03-28T04:06:16.777Z,24.12
2019-03-28T04:09:24.526Z,27.50
2019-03-28T04:12:32.353Z,23.42
2019-03-28T04:15:40.253Z,25.02
2019-03-28T04:18:48.132Z,28.02
2019-03-28T04:21:55.811Z,26.17
2019-03-28T04:25:03.685Z,30.05
2019-03-28T04:28:12.630Z,29.32
2019-03-28T04:31:21.130Z,23.05
2019-03-28T04:34:29.260Z,27.30
2019-03-28T04:37:36.954Z,27.60
2019-03-28T04:40:44.851Z,24.18
2019-03-28T04:43:55.659Z,25.27
2019-03-28T04:47:04.122Z,27.42
2019-03-28T04:50:12.281Z,29.95
2019-03-28T04:53:22.075Z,27.17
2019-03-28T04:56:29.938Z,29.67
2019-03-28T04:59:44.774Z,32.55
2019-03-28T05:02:55.103Z,26.02
2019-03-28T05:06:02.916Z,30.70
2019-03-28T05:09:10.770Z,28.62
2019-03-28T05:12:18.675Z,28.30
2019-03-28T05:15:26.468Z,26.12
2019-03-28T05:18:34.175Z,40.23
2019-03-28T05:21:41.827Z,25.02
2019-03-28T05:24:49.756Z,35.40
2019-03-28T05:27:58.087Z,29.65
2019-03-28T05:31:05.910Z,27.02
2019-03-28T05:34:13.718Z,31.70
2019-03-28T05:37:21.471Z,30.70
2019-03-28T05:40:29.209Z,29.23
2019-03-28T05:43:36.980Z,26.05
2019-03-28T05:46:44.840Z,29.87
2019-03-28T05:49:52.733Z,31.65
2019-03-28T05:53:00.733Z,27.90
2019-03-28T05:56:08.582Z,27.32
2019-03-28T05:59:16.449Z,36.40
2019-03-28T06:02:24.547Z,29.65
2019-03-28T06:05:33.010Z,38.92
2019-03-28T06:08:40.837Z,28.07
2019-03-28T06:11:48.663Z,39.38
2019-03-28T06:14:56.538Z,26.55
2019-03-28T06:18:04.414Z,34.50
2019-03-28T06:21:12.137Z,35.08
2019-03-28T06:24:20.012Z,31.48
2019-03-28T06:27:27.772Z,30.55
2019-03-28T06:30:35.489Z,30.80
2019-03-28T06:33:43.202Z,33.05
2019-03-28T06:36:51.660Z,35.08
2019-03-28T06:39:59.485Z,32.38
2019-03-28T06:43:07.342Z,43.28
2019-03-28T06:46:15.329Z,35.78
2019-03-28T06:49:23.356Z,33.75
2019-03-28T06:52:31.173Z,29.25
2019-03-28T06:55:38.965Z,24.95
2019-03-28T06:58:46.871Z,31.85
2019-03-28T07:01:54.777Z,28.40
2019-03-28T07:05:02.556Z,27.80
2019-03-28T07:08:10.654Z,32.30
2019-03-28T07:11:18.477Z,39.13
2019-03-28T07:14:26.287Z,32.73
2019-03-28T07:17:34.334Z,32.38
2019-03-28T07:20:43.260Z,32.80
2019-03-28T07:23:50.930Z,34.25
2019-03-28T07:27:00.585Z,30.88
2019-03-28T07:30:09.951Z,31.93
2019-03-28T07:33:17.838Z,31.90
2019-03-28T07:36:25.987Z,29.72
2019-03-28T07:39:34.146Z,31.75
2019-03-28T07:42:44.711Z,32.45
2019-03-28T07:45:53.326Z,50.70
2019-03-28T07:49:01.237Z,58.02
2019-03-28T07:52:09.144Z,36.95
2019-03-28T07:55:16.995Z,31.45
2019-03-28T07:58:24.789Z,32.55
2019-03-28T08:01:32.552Z,30.68
2019-03-28T08:04:40.598Z,30.23
2019-03-28T08:07:49.484Z,27.13
2019-03-28T08:10:58.671Z,30.85
2019-03-28T08:14:06.789Z,36.23
2019-03-28T08:17:14.570Z,33.83
2019-03-28T08:20:22.855Z,26.75
2019-03-28T08:23:30.689Z,30.08
2019-03-28T08:26:38.640Z,29.10
2019-03-28T08:29:46.657Z,34.40
2019-03-28T08:32:54.503Z,25.82
2019-03-28T08:36:02.834Z,23.15
2019-03-28T08:39:11.201Z,26.65
2019-03-28T08:42:19.654Z,26.20
2019-03-28T08:45:27.627Z,22.93
2019-03-28T08:48:35.475Z,25.23
2019-03-28T08:51:43.533Z,23.25
2019-03-28T08:54:51.293Z,30.15
2019-03-28T08:57:59.402Z,20.72
2019-03-28T09:01:08.391Z,26.40
2019-03-28T09:04:16.215Z,25.27
2019-03-28T09:07:24.287Z,24.95
2019-03-28T09:10:32.004Z,20.72
2019-03-28T09:13:40.146Z,31.90
2019-03-28T09:16:47.860Z,26.42
2019-03-28T09:19:55.654Z,26.05
2019-03-28T09:23:03.437Z,22.25
2019-03-28T09:26:11.375Z,31.40
2019-03-28T09:29:19.351Z,28.95
2019-03-28T09:32:27.282Z,25.30
2019-03-28T09:35:35.112Z,26.30
2019-03-28T09:38:44.770Z,25.90
2019-03-28T09:41:52.565Z,30.32
2019-03-28T09:45:00.456Z,34.53
2019-03-28T09:48:11.498Z,31.33
2019-03-28T09:51:17.810Z,25.70
2019-03-28T09:54:25.755Z,23.47
2019-03-28T09:57:33.724Z,29.75
2019-03-28T10:00:42.172Z,28.42
2019-03-28T10:03:50.273Z,31.82
2019-03-28T10:06:58.260Z,31.62
2019-03-28T10:10:09.148Z,24.57
2019-03-28T10:13:16.554Z,27.32
2019-03-28T10:16:25.684Z,25.25
2019-03-28T10:19:33.509Z,28.12
2019-03-28T10:22:42.795Z,27.32
2019-03-28T10:25:50.490Z,34.00
2019-03-28T10:28:58.392Z,32.83
2019-03-28T10:32:06.537Z,28.70
2019-03-28T10:35:27.538Z,25.95
2019-03-28T10:38:35.286Z,29.50
2019-03-28T10:41:46.015Z,29.30
2019-03-28T10:44:54.124Z,38.95
2019-03-28T10:48:01.948Z,23.83
2019-03-28T10:51:09.850Z,30.62
2019-03-28T10:54:20.635Z,31.35
2019-03-28T10:57:31.974Z,27.55
2019-03-28T11:00:37.345Z,31.20
2019-03-28T11:03:45.499Z,25.57
2019-03-28T11:06:53.379Z,30.52
2019-03-28T11:10:01.363Z,29.72
2019-03-28T11:13:09.822Z,26.20
2019-03-28T11:16:17.925Z,26.68
2019-03-28T11:19:27.141Z,27.85
2019-03-28T11:22:34.911Z,27.67
2019-03-28T11:25:44.616Z,31.95
2019-03-28T11:28:52.449Z,25.68
2019-03-28T11:32:00.521Z,37.08
2019-03-28T11:35:09.043Z,35.58
2019-03-28T11:38:17.318Z,31.27
2019-03-28T11:41:25.097Z,41.58
2019-03-28T11:44:32.958Z,31.33
2019-03-28T11:47:44.576Z,32.13
2019-03-28T11:50:52.476Z,31.07
2019-03-28T11:54:00.338Z,30.70
2019-03-28T11:57:08.245Z,28.38
2019-03-28T12:00:17.508Z,29.40
2019-03-28T12:03:26.789Z,32.60
2019-03-28T12:06:34.624Z,29.40
2019-03-28T12:09:42.668Z,31.52
2019-03-28T12:12:50.395Z,40.33
2019-03-28T12:15:58.247Z,26.55
2019-03-28T12:19:05.945Z,29.12
2019-03-28T12:22:13.996Z,29.92
2019-03-28T12:25:21.732Z,30.97
2019-03-28T12:28:29.467Z,33.55
2019-03-28T12:31:38.398Z,35.25
2019-03-28T12:34:46.202Z,30.77
2019-03-28T12:37:53.966Z,30.25
2019-03-28T12:41:01.960Z,29.23
2019-03-28T12:44:09.837Z,25.00
2019-03-28T12:47:23.459Z,31.23
2019-03-28T12:50:31.610Z,30.25
2019-03-28T12:53:40.914Z,28.30
2019-03-28T12:56:49.720Z,29.63
2019-03-28T12:59:57.737Z,37.42
2019-03-28T13:03:05.518Z,34.50
2019-03-28T13:06:13.930Z,33.83
2019-03-28T13:09:21.713Z,32.25
2019-03-28T13:12:30.514Z,30.08
2019-03-28T13:15:38.391Z,33.67
2019-03-28T13:18:47.385Z,34.38
2019-03-28T13:21:55.122Z,33.13
2019-03-28T13:25:10.283Z,31.00
2019-03-28T13:28:20.571Z,33.58
2019-03-28T13:31:28.616Z,27.65
2019-03-28T13:34:36.556Z,35.25
2019-03-28T13:37:44.324Z,34.30
2019-03-28T13:40:52.130Z,41.73
2019-03-28T13:44:00.958Z,39.15
2019-03-28T13:47:08.885Z,40.65
2019-03-28T13:50:17.656Z,37.10
2019-03-28T13:53:38.405Z,32.67
2019-03-28T13:56:38.333Z,44.35
2019-03-28T13:59:47.124Z,35.80
2019-03-28T14:02:58.838Z,33.30
2019-03-28T14:06:04.770Z,42.30
2019-03-28T14:09:15.683Z,35.05
2019-03-28T14:12:23.403Z,30.27
2019-03-28T14:15:31.500Z,45.90
2019-03-28T14:18:44.924Z,35.88
2019-03-28T14:21:49.843Z,28.62
2019-03-28T14:24:57.719Z,30.55
2019-03-28T14:28:06.009Z,35.48
2019-03-28T14:31:14.181Z,32.58
2019-03-28T14:34:22.057Z,27.50
2019-03-28T14:37:29.865Z,29.23
2019-03-28T14:40:37.903Z,33.48
2019-03-28T14:43:45.695Z,31.35
2019-03-28T14:46:53.508Z,27.17
2019-03-28T14:50:01.478Z,33.42
2019-03-28T14:53:10.246Z,31.37
2019-03-28T14:56:18.810Z,30.82
2019-03-28T14:59:32.703Z,27.35
2019-03-28T15:02:37.849Z,32.58
2019-03-28T15:05:45.650Z,33.78
2019-03-28T15:08:54.729Z,37.13
2019-03-28T15:12:02.459Z,32.70
2019-03-28T15:15:10.325Z,36.10
2019-03-28T15:18:18.348Z,35.98
2019-03-28T15:21:26.167Z,35.30
2019-03-28T15:24:34.109Z,37.80
2019-03-28T15:27:41.897Z,36.25
2019-03-28T15:30:51.588Z,34.88
2019-03-28T15:33:59.525Z,31.50
2019-03-28T15:37:07.389Z,32.42
2019-03-28T15:40:15.281Z,36.58
2019-03-28T15:43:23.478Z,43.30
2019-03-28T15:46:31.311Z,31.62
2019-03-28T15:49:42.378Z,39.35
2019-03-28T15:52:50.275Z,36.53
2019-03-28T15:55:58.133Z,37.40
2019-03-28T15:59:06.171Z,32.10
2019-03-28T16:02:14.230Z,30.37
2019-03-28T16:05:22.013Z,30.62
2019-03-28T16:08:29.828Z,27.52
2019-03-28T16:11:37.625Z,30.27
2019-03-28T16:14:48.819Z,30.05
2019-03-28T16:17:57.798Z,30.35
2019-03-28T16:21:06.451Z,33.92
2019-03-28T16:24:15.338Z,33.95
2019-03-28T16:27:23.220Z,32.93
2019-03-28T16:30:53.774Z,37.48
2019-03-28T16:34:12.323Z,29.82
2019-03-28T16:37:57.918Z,35.65
2019-03-28T16:41:06.028Z,44.75
2019-03-28T16:44:14.097Z,33.67
2019-03-28T16:48:31.047Z,30.30
2019-03-28T16:54:53.090Z,31.60
2019-03-28T16:58:02.040Z,31.45
2019-03-28T17:01:13.368Z,35.83
2019-03-28T17:04:24.183Z,29.98
2019-03-28T17:07:35.937Z,35.60
2019-03-28T17:11:47.582Z,28.45
2019-03-28T17:18:11.259Z,41.48
2019-03-28T17:21:19.585Z,56.92
2019-03-28T17:24:31.801Z,40.20
2019-03-28T17:28:20.994Z,41.20
2019-03-28T17:31:39.188Z,40.58
2019-03-28T17:34:48.023Z,30.77
2019-03-28T17:37:57.215Z,30.97
2019-03-28T17:41:06.649Z,30.00
2019-03-28T17:44:15.862Z,35.73
2019-03-28T17:47:23.693Z,28.12
2019-03-28T17:50:31.642Z,26.48
2019-03-28T17:53:42.139Z,23.22
2019-03-28T17:56:50.153Z,24.95
2019-03-28T17:59:57.989Z,21.42
2019-03-28T18:03:09.834Z,24.02
2019-03-28T18:06:18.219Z,34.70
2019-03-28T18:09:26.235Z,19.87
2019-03-28T18:12:34.092Z,25.23
2019-03-28T18:15:56.891Z,23.22
2019-03-28T18:19:05.940Z,29.15
2019-03-28T18:22:14.779Z,31.75
2019-03-28T18:25:22.667Z,23.20
2019-03-28T18:28:33.674Z,25.62
2019-03-28T18:31:50.327Z,26.90
2019-03-28T18:35:04.691Z,22.42
2019-03-28T18:38:04.063Z,26.07
2019-03-28T18:41:15.740Z,24.50
2019-03-28T18:44:23.640Z,25.27
2019-03-28T18:47:31.574Z,23.50
2019-03-28T18:50:41.119Z,29.10
2019-03-28T18:53:50.146Z,27.22
2019-03-28T18:56:58.233Z,25.12
2019-03-28T19:00:08.450Z,28.32
2019-03-28T19:03:16.351Z,28.60
2019-03-28T19:06:24.221Z,30.75
2019-03-28T19:09:33.137Z,22.50
2019-03-28T19:12:42.870Z,30.43
2019-03-28T19:15:52.122Z,23.22
2019-03-28T19:19:00.242Z,26.10
2019-03-28T19:22:08.497Z,26.00
2019-03-28T19:25:20.951Z,26.12
2019-03-28T19:28:29.640Z,23.18
2019-03-28T19:31:37.583Z,21.65
2019-03-28T19:34:45.472Z,22.40
2019-03-28T19:37:53.621Z,22.95
2019-03-28T19:41:01.478Z,22.32
2019-03-28T19:44:13.309Z,23.95
2019-03-28T19:47:23.694Z,25.35
2019-03-28T19:50:34.122Z,25.45
2019-03-28T19:53:45.354Z,24.85
2019-03-28T19:56:57.565Z,19.25
2019-03-28T20:00:09.237Z,22.55
2019-03-28T20:03:23.622Z,22.65
2019-03-28T20:06:33.547Z,22.30
2019-03-28T20:09:47.795Z,24.90
2019-03-28T20:13:00.398Z,23.15
2019-03-28T20:16:16.389Z,20.85
2019-03-28T20:19:24.359Z,21.70
2019-03-28T20:22:33.115Z,24.12
2019-03-28T20:25:42.781Z,21.45
2019-03-28T20:28:50.583Z,24.43
2019-03-28T20:31:58.615Z,21.45
2019-03-28T20:35:10.446Z,20.95
2019-03-28T20:38:18.093Z,24.37
2019-03-28T20:41:25.868Z,20.57
2019-03-28T20:44:33.696Z,22.30
2019-03-28T20:47:44.038Z,22.05
2019-03-28T20:50:52.443Z,23.27
2019-03-28T20:54:00.683Z,24.05
2019-03-28T20:57:10.193Z,27.37
2019-03-28T21:00:28.269Z,20.17
2019-03-28T21:03:36.709Z,20.20
2019-03-28T21:06:44.952Z,21.00
2019-03-28T21:09:52.768Z,20.55
2019-03-28T21:13:00.731Z,19.20
2019-03-28T21:16:11.795Z,22.80
2019-03-28T21:19:19.052Z,26.27
2019-03-28T21:22:27.027Z,24.75
2019-03-28T21:25:34.888Z,20.32
2019-03-28T21:28:47.383Z,21.20
2019-03-28T21:31:54.895Z,20.15
2019-03-28T21:35:02.869Z,21.25
2019-03-28T21:38:11.848Z,21.37
2019-03-28T21:41:20.279Z,20.15
2019-03-28T21:44:28.354Z,20.62
2019-03-28T21:47:36.140Z,20.95
2019-03-28T21:50:44.055Z,22.80
2019-03-28T21:53:51.939Z,22.87
2019-03-28T21:56:59.794Z,20.25
2019-03-28T22:00:10.172Z,21.97
2019-03-28T22:03:18.090Z,20.37
2019-03-28T22:06:27.081Z,21.75
2019-03-28T22:09:35.022Z,23.00
2019-03-28T22:12:43.157Z,24.98
2019-03-28T22:15:50.786Z,20.70
2019-03-28T22:18:59.790Z,20.35
2019-03-28T22:22:08.343Z,22.75
2019-03-28T22:25:16.395Z,21.65
2019-03-28T22:28:24.369Z,26.20
2019-03-28T22:31:32.368Z,23.67
2019-03-28T22:34:40.321Z,22.15
2019-03-28T22:37:48.182Z,24.15
2019-03-28T22:40:56.951Z,21.27
2019-03-28T22:44:07.728Z,23.95
2019-03-28T22:47:15.670Z,23.40
2019-03-28T22:50:24.091Z,29.40
2019-03-28T22:53:32.258Z,22.35
2019-03-28T22:56:40.150Z,21.35
2019-03-28T22:59:48.007Z,23.10
2019-03-28T23:02:56.067Z,22.27
2019-03-28T23:06:07.142Z,21.65
2019-03-28T23:09:15.033Z,20.30
2019-03-28T23:12:22.925Z,26.90
2019-03-28T23:15:30.912Z,24.67
2019-03-28T23:18:39.829Z,21.52
2019-03-28T23:21:47.691Z,23.85
2019-03-28T23:24:55.639Z,23.83
2019-03-28T23:28:03.506Z,26.73
2019-03-28T23:31:11.285Z,21.75
2019-03-28T23:34:20.120Z,20.50
2019-03-28T23:37:28.127Z,30.57
2019-03-28T23:40:35.822Z,22.37
2019-03-28T23:43:43.610Z,26.55
2019-03-28T23:46:52.653Z,24.27
2019-03-28T23:50:00.506Z,19.15
2019-03-28T23:53:08.943Z,25.32
2019-03-28T23:56:17.095Z,24.18
2019-03-28T23:59:24.803Z,21.30
